sensor_id;sensor_type;location;lat;lon;timestamp;P1;durP1;ratioP1;P2;durP2;ratioP2
36663;SDS011;53333;51.976;20.144;2022-11-20T00:01:54;54.08;;;23.35;;
36663;SDS011;53333;51.976;20.144;2022-11-20T00:04:28;66.43;;;28.17;;
36663;SDS011;53333;51.976;20.144;2022-11-20T00:07:02;53.33;;;25.55;;
36663;SDS011;53333;51.976;20.144;2022-11-20T00:09:35;59.63;;;26.95;;
36663;SDS011;53333;51.976;20.144;2022-11-20T00:12:10;59.50;;;25.65;;
36663;SDS011;53333;51.976;20.144;2022-11-20T00:14:44;57.55;;;23.98;;
36663;SDS011;53333;51.976;20.144;2022-11-20T00:17:17;52.85;;;25.55;;
36663;SDS011;53333;51.976;20.144;2022-11-20T00:19:51;56.22;;;25.90;;
36663;SDS011;53333;51.976;20.144;2022-11-20T00:22:24;58.78;;;25.40;;
36663;SDS011;53333;51.976;20.144;2022-11-20T00:24:58;55.33;;;26.10;;
36663;SDS011;53333;51.976;20.144;2022-11-20T00:27:33;55.03;;;24.15;;
36663;SDS011;53333;51.976;20.144;2022-11-20T00:30:09;60.42;;;25.55;;
36663;SDS011;53333;51.976;20.144;2022-11-20T00:32:45;56.88;;;26.33;;
36663;SDS011;53333;51.976;20.144;2022-11-20T00:35:19;54.67;;;25.83;;
36663;SDS011;53333;51.976;20.144;2022-11-20T00:37:52;45.17;;;20.20;;
36663;SDS011;53333;51.976;20.144;2022-11-20T00:40:26;50.50;;;24.17;;
36663;SDS011;53333;51.976;20.144;2022-11-20T00:43:01;54.40;;;24.48;;
36663;SDS011;53333;51.976;20.144;2022-11-20T00:45:35;53.53;;;24.80;;
36663;SDS011;53333;51.976;20.144;2022-11-20T00:48:12;51.63;;;24.13;;
36663;SDS011;53333;51.976;20.144;2022-11-20T00:50:45;51.90;;;23.67;;
36663;SDS011;53333;51.976;20.144;2022-11-20T00:53:19;55.42;;;23.92;;
36663;SDS011;53333;51.976;20.144;2022-11-20T00:55:53;50.30;;;23.08;;
36663;SDS011;53333;51.976;20.144;2022-11-20T00:58:30;56.67;;;23.52;;
36663;SDS011;53333;51.976;20.144;2022-11-20T01:01:06;63.13;;;26.52;;
36663;SDS011;53333;51.976;20.144;2022-11-20T01:03:42;57.53;;;25.27;;
36663;SDS011;53333;51.976;20.144;2022-11-20T01:06:17;52.30;;;23.75;;
36663;SDS011;53333;51.976;20.144;2022-11-20T01:08:53;54.63;;;23.08;;
36663;SDS011;53333;51.976;20.144;2022-11-20T01:11:28;56.65;;;23.38;;
36663;SDS011;53333;51.976;20.144;2022-11-20T01:14:05;54.00;;;24.70;;
36663;SDS011;53333;51.976;20.144;2022-11-20T01:16:41;53.95;;;24.92;;
36663;SDS011;53333;51.976;20.144;2022-11-20T01:19:18;57.88;;;24.42;;
36663;SDS011;53333;51.976;20.144;2022-11-20T01:21:53;58.38;;;23.73;;
36663;SDS011;53333;51.976;20.144;2022-11-20T01:24:27;50.65;;;24.73;;
36663;SDS011;53333;51.976;20.144;2022-11-20T01:27:01;54.75;;;24.55;;
36663;SDS011;53333;51.976;20.144;2022-11-20T01:29:36;55.75;;;23.58;;
36663;SDS011;53333;51.976;20.144;2022-11-20T01:32:09;64.25;;;25.73;;
36663;SDS011;53333;51.976;20.144;2022-11-20T01:34:43;68.45;;;26.92;;
36663;SDS011;53333;51.976;20.144;2022-11-20T01:37:17;54.80;;;25.38;;
36663;SDS011;53333;51.976;20.144;2022-11-20T01:39:51;58.85;;;25.33;;
36663;SDS011;53333;51.976;20.144;2022-11-20T01:42:24;56.00;;;23.70;;
36663;SDS011;53333;51.976;20.144;2022-11-20T01:48:38;50.95;;;22.35;;
36663;SDS011;53333;51.976;20.144;2022-11-20T01:51:19;56.97;;;22.38;;
36663;SDS011;53333;51.976;20.144;2022-11-20T01:53:59;52.55;;;24.13;;
36663;SDS011;53333;51.976;20.144;2022-11-20T01:56:38;50.17;;;22.65;;
36663;SDS011;53333;51.976;20.144;2022-11-20T01:59:16;55.58;;;25.77;;
36663;SDS011;53333;51.976;20.144;2022-11-20T02:01:52;52.58;;;23.60;;
36663;SDS011;53333;51.976;20.144;2022-11-20T02:07:01;45.33;;;20.88;;
36663;SDS011;53333;51.976;20.144;2022-11-20T02:09:36;52.40;;;23.48;;
36663;SDS011;53333;51.976;20.144;2022-11-20T02:12:10;56.92;;;24.88;;
36663;SDS011;53333;51.976;20.144;2022-11-20T02:15:04;58.60;;;24.23;;
36663;SDS011;53333;51.976;20.144;2022-11-20T02:17:37;57.08;;;25.08;;
36663;SDS011;53333;51.976;20.144;2022-11-20T02:20:12;58.05;;;26.30;;
36663;SDS011;53333;51.976;20.144;2022-11-20T02:22:48;55.17;;;26.17;;
36663;SDS011;53333;51.976;20.144;2022-11-20T02:25:29;54.17;;;25.25;;
36663;SDS011;53333;51.976;20.144;2022-11-20T02:28:05;57.83;;;23.75;;
36663;SDS011;53333;51.976;20.144;2022-11-20T02:30:39;55.25;;;24.98;;
36663;SDS011;53333;51.976;20.144;2022-11-20T02:33:12;65.18;;;25.70;;
36663;SDS011;53333;51.976;20.144;2022-11-20T02:35:46;60.05;;;24.48;;
36663;SDS011;53333;51.976;20.144;2022-11-20T02:38:20;53.15;;;24.33;;
36663;SDS011;53333;51.976;20.144;2022-11-20T02:40:55;55.60;;;24.17;;
36663;SDS011;53333;51.976;20.144;2022-11-20T02:43:29;59.85;;;25.95;;
36663;SDS011;53333;51.976;20.144;2022-11-20T02:46:02;54.05;;;23.73;;
36663;SDS011;53333;51.976;20.144;2022-11-20T02:48:36;55.83;;;24.27;;
36663;SDS011;53333;51.976;20.144;2022-11-20T02:51:09;65.70;;;25.25;;
36663;SDS011;53333;51.976;20.144;2022-11-20T02:53:43;55.13;;;22.60;;
36663;SDS011;53333;51.976;20.144;2022-11-20T02:56:17;43.83;;;18.70;;
36663;SDS011;53333;51.976;20.144;2022-11-20T02:58:51;59.60;;;24.38;;
36663;SDS011;53333;51.976;20.144;2022-11-20T03:01:24;57.10;;;26.25;;
36663;SDS011;53333;51.976;20.144;2022-11-20T03:03:58;56.40;;;24.10;;
36663;SDS011;53333;51.976;20.144;2022-11-20T03:06:32;64.30;;;26.02;;
36663;SDS011;53333;51.976;20.144;2022-11-20T03:09:06;61.92;;;25.23;;
36663;SDS011;53333;51.976;20.144;2022-11-20T03:11:41;62.13;;;26.38;;
36663;SDS011;53333;51.976;20.144;2022-11-20T03:14:14;63.20;;;25.77;;
36663;SDS011;53333;51.976;20.144;2022-11-20T03:16:48;67.07;;;27.98;;
36663;SDS011;53333;51.976;20.144;2022-11-20T03:19:22;66.95;;;25.75;;
36663;SDS011;53333;51.976;20.144;2022-11-20T03:21:55;54.65;;;25.10;;
36663;SDS011;53333;51.976;20.144;2022-11-20T03:24:29;58.42;;;23.98;;
36663;SDS011;53333;51.976;20.144;2022-11-20T03:27:04;62.38;;;24.98;;
36663;SDS011;53333;51.976;20.144;2022-11-20T03:29:37;65.40;;;25.25;;
36663;SDS011;53333;51.976;20.144;2022-11-20T03:32:11;57.20;;;21.42;;
36663;SDS011;53333;51.976;20.144;2022-11-20T03:34:44;61.03;;;25.15;;
36663;SDS011;53333;51.976;20.144;2022-11-20T03:37:18;59.13;;;25.90;;
36663;SDS011;53333;51.976;20.144;2022-11-20T03:39:51;62.42;;;24.58;;
36663;SDS011;53333;51.976;20.144;2022-11-20T03:42:26;68.40;;;25.77;;
36663;SDS011;53333;51.976;20.144;2022-11-20T03:45:18;66.97;;;26.53;;
36663;SDS011;53333;51.976;20.144;2022-11-20T03:50:25;62.90;;;24.27;;
36663;SDS011;53333;51.976;20.144;2022-11-20T03:52:58;56.83;;;23.55;;
36663;SDS011;53333;51.976;20.144;2022-11-20T03:55:32;60.47;;;26.90;;
36663;SDS011;53333;51.976;20.144;2022-11-20T03:58:07;59.13;;;26.00;;
36663;SDS011;53333;51.976;20.144;2022-11-20T04:00:40;58.70;;;24.33;;
36663;SDS011;53333;51.976;20.144;2022-11-20T04:03:14;63.55;;;24.92;;
36663;SDS011;53333;51.976;20.144;2022-11-20T04:05:47;59.22;;;25.65;;
36663;SDS011;53333;51.976;20.144;2022-11-20T04:08:21;70.15;;;26.85;;
36663;SDS011;53333;51.976;20.144;2022-11-20T04:10:55;56.92;;;24.17;;
36663;SDS011;53333;51.976;20.144;2022-11-20T04:13:30;64.50;;;26.88;;
36663;SDS011;53333;51.976;20.144;2022-11-20T04:16:03;54.97;;;26.80;;
36663;SDS011;53333;51.976;20.144;2022-11-20T04:18:37;67.65;;;26.65;;
36663;SDS011;53333;51.976;20.144;2022-11-20T04:21:11;58.33;;;24.48;;
36663;SDS011;53333;51.976;20.144;2022-11-20T04:26:18;59.33;;;23.40;;
36663;SDS011;53333;51.976;20.144;2022-11-20T04:28:53;69.63;;;27.20;;
36663;SDS011;53333;51.976;20.144;2022-11-20T04:31:28;65.07;;;27.60;;
36663;SDS011;53333;51.976;20.144;2022-11-20T04:34:03;61.63;;;26.37;;
36663;SDS011;53333;51.976;20.144;2022-11-20T04:36:37;60.07;;;26.20;;
36663;SDS011;53333;51.976;20.144;2022-11-20T04:39:11;63.58;;;26.40;;
36663;SDS011;53333;51.976;20.144;2022-11-20T04:41:47;63.53;;;25.13;;
36663;SDS011;53333;51.976;20.144;2022-11-20T04:44:42;67.20;;;25.07;;
36663;SDS011;53333;51.976;20.144;2022-11-20T04:47:15;62.80;;;25.77;;
36663;SDS011;53333;51.976;20.144;2022-11-20T04:49:49;62.97;;;25.30;;
36663;SDS011;53333;51.976;20.144;2022-11-20T04:52:22;65.15;;;24.55;;
36663;SDS011;53333;51.976;20.144;2022-11-20T04:54:56;60.58;;;25.73;;
36663;SDS011;53333;51.976;20.144;2022-11-20T04:57:29;67.53;;;26.15;;
36663;SDS011;53333;51.976;20.144;2022-11-20T05:00:05;65.40;;;24.80;;
36663;SDS011;53333;51.976;20.144;2022-11-20T05:02:39;68.38;;;25.45;;
36663;SDS011;53333;51.976;20.144;2022-11-20T05:05:13;57.75;;;24.05;;
36663;SDS011;53333;51.976;20.144;2022-11-20T05:07:47;56.83;;;24.65;;
36663;SDS011;53333;51.976;20.144;2022-11-20T05:10:20;68.50;;;23.65;;
36663;SDS011;53333;51.976;20.144;2022-11-20T05:12:54;52.78;;;22.60;;
36663;SDS011;53333;51.976;20.144;2022-11-20T05:15:29;56.90;;;23.75;;
36663;SDS011;53333;51.976;20.144;2022-11-20T05:18:02;59.07;;;24.50;;
36663;SDS011;53333;51.976;20.144;2022-11-20T05:20:36;57.78;;;22.58;;
36663;SDS011;53333;51.976;20.144;2022-11-20T05:23:09;54.47;;;23.30;;
36663;SDS011;53333;51.976;20.144;2022-11-20T05:25:43;57.13;;;23.38;;
36663;SDS011;53333;51.976;20.144;2022-11-20T05:28:16;52.95;;;23.20;;
36663;SDS011;53333;51.976;20.144;2022-11-20T05:30:51;55.13;;;23.55;;
36663;SDS011;53333;51.976;20.144;2022-11-20T05:33:25;55.43;;;23.67;;
36663;SDS011;53333;51.976;20.144;2022-11-20T05:35:58;51.47;;;23.90;;
36663;SDS011;53333;51.976;20.144;2022-11-20T05:38:32;64.65;;;25.67;;
36663;SDS011;53333;51.976;20.144;2022-11-20T05:43:41;57.83;;;21.07;;
36663;SDS011;53333;51.976;20.144;2022-11-20T05:46:17;54.87;;;21.00;;
36663;SDS011;53333;51.976;20.144;2022-11-20T05:48:59;56.25;;;22.25;;
36663;SDS011;53333;51.976;20.144;2022-11-20T05:51:32;58.00;;;22.67;;
36663;SDS011;53333;51.976;20.144;2022-11-20T05:54:06;56.00;;;22.58;;
36663;SDS011;53333;51.976;20.144;2022-11-20T05:56:40;56.03;;;23.53;;
36663;SDS011;53333;51.976;20.144;2022-11-20T05:59:14;59.65;;;23.80;;
36663;SDS011;53333;51.976;20.144;2022-11-20T06:01:49;49.95;;;22.75;;
36663;SDS011;53333;51.976;20.144;2022-11-20T06:04:22;61.83;;;24.53;;
36663;SDS011;53333;51.976;20.144;2022-11-20T06:06:58;59.13;;;24.00;;
36663;SDS011;53333;51.976;20.144;2022-11-20T06:09:32;65.47;;;26.55;;
36663;SDS011;53333;51.976;20.144;2022-11-20T06:12:05;59.80;;;25.05;;
36663;SDS011;53333;51.976;20.144;2022-11-20T06:14:39;63.13;;;24.40;;
36663;SDS011;53333;51.976;20.144;2022-11-20T06:17:14;68.68;;;25.08;;
36663;SDS011;53333;51.976;20.144;2022-11-20T06:19:47;60.77;;;26.07;;
36663;SDS011;53333;51.976;20.144;2022-11-20T06:22:21;57.08;;;24.13;;
36663;SDS011;53333;51.976;20.144;2022-11-20T06:24:54;56.72;;;24.67;;
36663;SDS011;53333;51.976;20.144;2022-11-20T06:27:28;52.72;;;20.60;;
36663;SDS011;53333;51.976;20.144;2022-11-20T06:30:02;67.20;;;28.27;;
36663;SDS011;53333;51.976;20.144;2022-11-20T06:32:37;56.85;;;25.80;;
36663;SDS011;53333;51.976;20.144;2022-11-20T06:35:10;59.33;;;25.67;;
36663;SDS011;53333;51.976;20.144;2022-11-20T06:37:44;71.15;;;28.83;;
36663;SDS011;53333;51.976;20.144;2022-11-20T06:40:17;66.40;;;27.25;;
36663;SDS011;53333;51.976;20.144;2022-11-20T06:42:53;68.88;;;29.58;;
36663;SDS011;53333;51.976;20.144;2022-11-20T06:45:27;62.40;;;27.07;;
36663;SDS011;53333;51.976;20.144;2022-11-20T06:48:02;66.70;;;28.42;;
36663;SDS011;53333;51.976;20.144;2022-11-20T06:50:36;65.03;;;27.47;;
36663;SDS011;53333;51.976;20.144;2022-11-20T06:53:10;70.90;;;27.97;;
36663;SDS011;53333;51.976;20.144;2022-11-20T06:55:43;63.95;;;28.90;;
36663;SDS011;53333;51.976;20.144;2022-11-20T06:58:18;64.93;;;27.03;;
36663;SDS011;53333;51.976;20.144;2022-11-20T07:00:52;74.30;;;31.48;;
36663;SDS011;53333;51.976;20.144;2022-11-20T07:03:27;80.13;;;32.50;;
36663;SDS011;53333;51.976;20.144;2022-11-20T07:06:00;82.00;;;30.80;;
36663;SDS011;53333;51.976;20.144;2022-11-20T07:08:35;78.07;;;31.00;;
36663;SDS011;53333;51.976;20.144;2022-11-20T07:11:11;81.07;;;31.75;;
36663;SDS011;53333;51.976;20.144;2022-11-20T07:13:45;81.05;;;30.25;;
36663;SDS011;53333;51.976;20.144;2022-11-20T07:16:18;87.05;;;34.50;;
36663;SDS011;53333;51.976;20.144;2022-11-20T07:18:54;87.65;;;33.55;;
36663;SDS011;53333;51.976;20.144;2022-11-20T07:21:27;83.78;;;33.25;;
36663;SDS011;53333;51.976;20.144;2022-11-20T07:24:01;66.30;;;28.95;;
36663;SDS011;53333;51.976;20.144;2022-11-20T07:26:34;73.80;;;32.90;;
36663;SDS011;53333;51.976;20.144;2022-11-20T07:29:08;73.82;;;34.53;;
36663;SDS011;53333;51.976;20.144;2022-11-20T07:31:41;78.78;;;34.38;;
36663;SDS011;53333;51.976;20.144;2022-11-20T07:34:16;71.22;;;34.75;;
36663;SDS011;53333;51.976;20.144;2022-11-20T07:36:51;74.22;;;33.92;;
36663;SDS011;53333;51.976;20.144;2022-11-20T07:39:25;78.85;;;35.80;;
36663;SDS011;53333;51.976;20.144;2022-11-20T07:41:58;73.63;;;36.28;;
36663;SDS011;53333;51.976;20.144;2022-11-20T07:44:32;69.47;;;34.22;;
36663;SDS011;53333;51.976;20.144;2022-11-20T07:47:05;68.65;;;35.25;;
36663;SDS011;53333;51.976;20.144;2022-11-20T07:49:40;71.63;;;35.30;;
36663;SDS011;53333;51.976;20.144;2022-11-20T07:52:13;75.93;;;35.38;;
36663;SDS011;53333;51.976;20.144;2022-11-20T07:54:47;77.90;;;38.15;;
36663;SDS011;53333;51.976;20.144;2022-11-20T07:57:21;74.40;;;37.35;;
36663;SDS011;53333;51.976;20.144;2022-11-20T07:59:58;71.40;;;38.78;;
36663;SDS011;53333;51.976;20.144;2022-11-20T08:02:42;74.07;;;38.90;;
36663;SDS011;53333;51.976;20.144;2022-11-20T08:05:17;79.97;;;39.50;;
36663;SDS011;53333;51.976;20.144;2022-11-20T08:07:51;74.97;;;39.38;;
36663;SDS011;53333;51.976;20.144;2022-11-20T08:10:24;79.20;;;40.90;;
36663;SDS011;53333;51.976;20.144;2022-11-20T08:12:58;74.18;;;39.00;;
36663;SDS011;53333;51.976;20.144;2022-11-20T08:15:49;80.28;;;41.08;;
36663;SDS011;53333;51.976;20.144;2022-11-20T08:18:23;74.22;;;39.00;;
36663;SDS011;53333;51.976;20.144;2022-11-20T08:21:04;79.00;;;40.92;;
36663;SDS011;53333;51.976;20.144;2022-11-20T08:23:38;73.00;;;39.63;;
36663;SDS011;53333;51.976;20.144;2022-11-20T08:26:12;78.03;;;41.13;;
36663;SDS011;53333;51.976;20.144;2022-11-20T08:28:45;75.05;;;39.90;;
36663;SDS011;53333;51.976;20.144;2022-11-20T08:31:19;79.95;;;41.40;;
36663;SDS011;53333;51.976;20.144;2022-11-20T08:33:52;70.78;;;38.65;;
36663;SDS011;53333;51.976;20.144;2022-11-20T08:36:28;67.88;;;40.63;;
36663;SDS011;53333;51.976;20.144;2022-11-20T08:39:01;83.00;;;42.97;;
36663;SDS011;53333;51.976;20.144;2022-11-20T08:41:38;69.90;;;41.20;;
36663;SDS011;53333;51.976;20.144;2022-11-20T08:44:12;84.35;;;43.60;;
36663;SDS011;53333;51.976;20.144;2022-11-20T08:46:45;75.28;;;41.63;;
36663;SDS011;53333;51.976;20.144;2022-11-20T08:49:19;67.35;;;41.95;;
36663;SDS011;53333;51.976;20.144;2022-11-20T08:51:55;70.88;;;42.42;;
36663;SDS011;53333;51.976;20.144;2022-11-20T08:54:38;70.40;;;42.53;;
36663;SDS011;53333;51.976;20.144;2022-11-20T08:57:11;69.50;;;41.17;;
36663;SDS011;53333;51.976;20.144;2022-11-20T08:59:45;68.72;;;38.03;;
36663;SDS011;53333;51.976;20.144;2022-11-20T09:02:36;65.57;;;39.55;;
36663;SDS011;53333;51.976;20.144;2022-11-20T09:05:10;63.38;;;39.50;;
36663;SDS011;53333;51.976;20.144;2022-11-20T09:10:18;58.75;;;36.55;;
36663;SDS011;53333;51.976;20.144;2022-11-20T09:12:55;57.40;;;34.90;;
36663;SDS011;53333;51.976;20.144;2022-11-20T09:15:29;53.13;;;35.05;;
36663;SDS011;53333;51.976;20.144;2022-11-20T09:18:02;61.33;;;38.28;;
36663;SDS011;53333;51.976;20.144;2022-11-20T09:20:36;62.70;;;38.10;;
36663;SDS011;53333;51.976;20.144;2022-11-20T09:23:11;55.17;;;35.75;;
36663;SDS011;53333;51.976;20.144;2022-11-20T09:25:45;53.35;;;34.97;;
36663;SDS011;53333;51.976;20.144;2022-11-20T09:28:19;52.85;;;33.60;;
36663;SDS011;53333;51.976;20.144;2022-11-20T09:33:26;54.80;;;34.53;;
36663;SDS011;53333;51.976;20.144;2022-11-20T09:35:59;57.30;;;36.92;;
36663;SDS011;53333;51.976;20.144;2022-11-20T09:38:34;52.38;;;35.08;;
36663;SDS011;53333;51.976;20.144;2022-11-20T09:41:10;45.92;;;29.90;;
36663;SDS011;53333;51.976;20.144;2022-11-20T09:44:04;56.15;;;34.75;;
36663;SDS011;53333;51.976;20.144;2022-11-20T09:46:51;61.17;;;36.90;;
36663;SDS011;53333;51.976;20.144;2022-11-20T09:49:32;52.65;;;34.05;;
36663;SDS011;53333;51.976;20.144;2022-11-20T09:52:20;53.47;;;35.50;;
36663;SDS011;53333;51.976;20.144;2022-11-20T09:55:03;55.97;;;34.70;;
36663;SDS011;53333;51.976;20.144;2022-11-20T09:57:42;57.13;;;36.15;;
36663;SDS011;53333;51.976;20.144;2022-11-20T10:00:20;51.00;;;32.00;;
36663;SDS011;53333;51.976;20.144;2022-11-20T10:02:58;44.67;;;30.90;;
36663;SDS011;53333;51.976;20.144;2022-11-20T10:05:38;55.35;;;33.97;;
36663;SDS011;53333;51.976;20.144;2022-11-20T10:08:17;49.20;;;32.28;;
36663;SDS011;53333;51.976;20.144;2022-11-20T10:10:56;49.85;;;30.65;;
36663;SDS011;53333;51.976;20.144;2022-11-20T10:13:39;43.40;;;30.17;;
36663;SDS011;53333;51.976;20.144;2022-11-20T10:16:24;49.47;;;32.00;;
36663;SDS011;53333;51.976;20.144;2022-11-20T10:19:15;50.40;;;32.40;;
36663;SDS011;53333;51.976;20.144;2022-11-20T10:22:02;50.63;;;32.50;;
36663;SDS011;53333;51.976;20.144;2022-11-20T10:24:48;49.88;;;33.45;;
36663;SDS011;53333;51.976;20.144;2022-11-20T10:27:42;47.17;;;30.80;;
36663;SDS011;53333;51.976;20.144;2022-11-20T10:30:31;53.88;;;32.63;;
36663;SDS011;53333;51.976;20.144;2022-11-20T10:33:13;53.58;;;35.25;;
36663;SDS011;53333;51.976;20.144;2022-11-20T10:35:50;50.75;;;33.15;;
36663;SDS011;53333;51.976;20.144;2022-11-20T10:38:30;51.17;;;32.72;;
36663;SDS011;53333;51.976;20.144;2022-11-20T10:41:10;53.17;;;31.10;;
36663;SDS011;53333;51.976;20.144;2022-11-20T10:46:43;48.55;;;29.45;;
36663;SDS011;53333;51.976;20.144;2022-11-20T10:49:18;53.40;;;29.52;;
36663;SDS011;53333;51.976;20.144;2022-11-20T10:51:56;53.05;;;30.67;;
36663;SDS011;53333;51.976;20.144;2022-11-20T10:54:36;52.58;;;30.83;;
36663;SDS011;53333;51.976;20.144;2022-11-20T10:57:19;57.78;;;30.90;;
36663;SDS011;53333;51.976;20.144;2022-11-20T11:00:03;51.67;;;29.33;;
36663;SDS011;53333;51.976;20.144;2022-11-20T11:02:39;56.42;;;31.50;;
36663;SDS011;53333;51.976;20.144;2022-11-20T11:05:24;51.70;;;31.48;;
36663;SDS011;53333;51.976;20.144;2022-11-20T11:08:08;54.72;;;33.20;;
36663;SDS011;53333;51.976;20.144;2022-11-20T11:10:46;50.85;;;31.80;;
36663;SDS011;53333;51.976;20.144;2022-11-20T11:13:25;52.08;;;30.73;;
36663;SDS011;53333;51.976;20.144;2022-11-20T11:16:01;110.93;;;72.75;;
36663;SDS011;53333;51.976;20.144;2022-11-20T11:18:36;55.47;;;33.58;;
36663;SDS011;53333;51.976;20.144;2022-11-20T11:21:10;52.15;;;32.45;;
36663;SDS011;53333;51.976;20.144;2022-11-20T11:23:43;52.58;;;32.58;;
36663;SDS011;53333;51.976;20.144;2022-11-20T11:26:18;47.00;;;29.27;;
36663;SDS011;53333;51.976;20.144;2022-11-20T11:28:54;44.15;;;29.10;;
36663;SDS011;53333;51.976;20.144;2022-11-20T11:31:30;44.95;;;28.48;;
36663;SDS011;53333;51.976;20.144;2022-11-20T11:34:07;48.70;;;28.75;;
36663;SDS011;53333;51.976;20.144;2022-11-20T11:36:49;43.55;;;27.95;;
36663;SDS011;53333;51.976;20.144;2022-11-20T11:39:28;49.60;;;29.05;;
36663;SDS011;53333;51.976;20.144;2022-11-20T11:42:06;40.00;;;26.38;;
36663;SDS011;53333;51.976;20.144;2022-11-20T11:44:46;46.30;;;27.52;;
36663;SDS011;53333;51.976;20.144;2022-11-20T11:47:44;39.72;;;25.80;;
36663;SDS011;53333;51.976;20.144;2022-11-20T11:50:20;44.25;;;27.02;;
36663;SDS011;53333;51.976;20.144;2022-11-20T11:53:03;37.63;;;26.35;;
36663;SDS011;53333;51.976;20.144;2022-11-20T11:55:44;45.38;;;27.73;;
36663;SDS011;53333;51.976;20.144;2022-11-20T11:58:25;45.20;;;28.23;;
36663;SDS011;53333;51.976;20.144;2022-11-20T12:01:15;43.38;;;27.65;;
36663;SDS011;53333;51.976;20.144;2022-11-20T12:04:02;42.17;;;27.23;;
36663;SDS011;53333;51.976;20.144;2022-11-20T12:06:39;39.33;;;27.67;;
36663;SDS011;53333;51.976;20.144;2022-11-20T12:09:23;40.05;;;26.95;;
36663;SDS011;53333;51.976;20.144;2022-11-20T12:12:08;41.90;;;27.67;;
36663;SDS011;53333;51.976;20.144;2022-11-20T12:15:03;40.13;;;27.67;;
36663;SDS011;53333;51.976;20.144;2022-11-20T12:17:45;39.55;;;25.65;;
36663;SDS011;53333;51.976;20.144;2022-11-20T12:20:28;41.70;;;26.67;;
36663;SDS011;53333;51.976;20.144;2022-11-20T12:23:08;42.45;;;27.08;;
36663;SDS011;53333;51.976;20.144;2022-11-20T12:25:52;42.22;;;26.95;;
36663;SDS011;53333;51.976;20.144;2022-11-20T12:28:38;41.65;;;27.48;;
36663;SDS011;53333;51.976;20.144;2022-11-20T12:31:27;41.20;;;26.65;;
36663;SDS011;53333;51.976;20.144;2022-11-20T12:37:31;48.50;;;28.52;;
36663;SDS011;53333;51.976;20.144;2022-11-20T12:40:17;45.70;;;27.33;;
36663;SDS011;53333;51.976;20.144;2022-11-20T12:43:05;45.33;;;26.83;;
36663;SDS011;53333;51.976;20.144;2022-11-20T12:46:18;42.30;;;27.58;;
36663;SDS011;53333;51.976;20.144;2022-11-20T12:49:03;52.97;;;31.13;;
36663;SDS011;53333;51.976;20.144;2022-11-20T12:52:10;47.85;;;29.33;;
36663;SDS011;53333;51.976;20.144;2022-11-20T12:58:05;50.13;;;30.85;;
36663;SDS011;53333;51.976;20.144;2022-11-20T13:00:54;52.45;;;32.15;;
36663;SDS011;53333;51.976;20.144;2022-11-20T13:03:36;48.92;;;29.45;;
36663;SDS011;53333;51.976;20.144;2022-11-20T13:06:17;47.70;;;29.42;;
36663;SDS011;53333;51.976;20.144;2022-11-20T13:08:52;44.80;;;29.92;;
36663;SDS011;53333;51.976;20.144;2022-11-20T13:11:31;50.47;;;31.73;;
36663;SDS011;53333;51.976;20.144;2022-11-20T13:14:24;73.93;;;43.10;;
36663;SDS011;53333;51.976;20.144;2022-11-20T13:17:06;54.25;;;32.42;;
36663;SDS011;53333;51.976;20.144;2022-11-20T13:19:48;48.72;;;29.55;;
36663;SDS011;53333;51.976;20.144;2022-11-20T13:22:27;50.08;;;30.80;;
36663;SDS011;53333;51.976;20.144;2022-11-20T13:25:02;49.38;;;30.38;;
36663;SDS011;53333;51.976;20.144;2022-11-20T13:27:54;52.88;;;31.20;;
36663;SDS011;53333;51.976;20.144;2022-11-20T13:30:28;55.28;;;30.88;;
36663;SDS011;53333;51.976;20.144;2022-11-20T13:33:06;52.67;;;29.95;;
36663;SDS011;53333;51.976;20.144;2022-11-20T13:35:54;60.42;;;31.08;;
36663;SDS011;53333;51.976;20.144;2022-11-20T13:38:40;60.25;;;33.10;;
36663;SDS011;53333;51.976;20.144;2022-11-20T13:41:26;59.00;;;30.52;;
36663;SDS011;53333;51.976;20.144;2022-11-20T13:44:10;52.45;;;28.20;;
36663;SDS011;53333;51.976;20.144;2022-11-20T13:46:47;78.75;;;41.65;;
36663;SDS011;53333;51.976;20.144;2022-11-20T13:49:23;64.38;;;30.25;;
36663;SDS011;53333;51.976;20.144;2022-11-20T13:52:07;56.17;;;27.42;;
36663;SDS011;53333;51.976;20.144;2022-11-20T13:55:11;59.45;;;29.40;;
36663;SDS011;53333;51.976;20.144;2022-11-20T14:00:53;59.15;;;27.40;;
36663;SDS011;53333;51.976;20.144;2022-11-20T14:03:34;52.15;;;27.30;;
36663;SDS011;53333;51.976;20.144;2022-11-20T14:06:35;55.05;;;26.63;;
36663;SDS011;53333;51.976;20.144;2022-11-20T14:09:24;45.65;;;23.35;;
36663;SDS011;53333;51.976;20.144;2022-11-20T14:11:59;47.80;;;23.63;;
36663;SDS011;53333;51.976;20.144;2022-11-20T14:14:35;47.45;;;25.23;;
36663;SDS011;53333;51.976;20.144;2022-11-20T14:17:23;46.17;;;21.70;;
36663;SDS011;53333;51.976;20.144;2022-11-20T14:20:06;47.35;;;23.92;;
36663;SDS011;53333;51.976;20.144;2022-11-20T14:22:50;45.67;;;24.40;;
36663;SDS011;53333;51.976;20.144;2022-11-20T14:25:26;52.72;;;23.10;;
36663;SDS011;53333;51.976;20.144;2022-11-20T14:28:02;44.78;;;22.13;;
36663;SDS011;53333;51.976;20.144;2022-11-20T14:30:38;47.78;;;23.23;;
36663;SDS011;53333;51.976;20.144;2022-11-20T14:33:17;50.38;;;23.77;;
36663;SDS011;53333;51.976;20.144;2022-11-20T14:35:57;48.00;;;24.42;;
36663;SDS011;53333;51.976;20.144;2022-11-20T14:38:33;53.38;;;24.55;;
36663;SDS011;53333;51.976;20.144;2022-11-20T14:41:07;47.85;;;22.95;;
36663;SDS011;53333;51.976;20.144;2022-11-20T14:43:44;53.97;;;26.45;;
36663;SDS011;53333;51.976;20.144;2022-11-20T14:46:19;47.08;;;24.05;;
36663;SDS011;53333;51.976;20.144;2022-11-20T14:48:55;49.78;;;24.42;;
36663;SDS011;53333;51.976;20.144;2022-11-20T14:51:31;50.13;;;23.83;;
36663;SDS011;53333;51.976;20.144;2022-11-20T14:54:10;53.88;;;25.25;;
36663;SDS011;53333;51.976;20.144;2022-11-20T14:56:53;53.17;;;26.38;;
36663;SDS011;53333;51.976;20.144;2022-11-20T14:59:28;55.60;;;24.48;;
36663;SDS011;53333;51.976;20.144;2022-11-20T15:02:04;56.58;;;27.75;;
36663;SDS011;53333;51.976;20.144;2022-11-20T15:04:45;51.30;;;25.02;;
36663;SDS011;53333;51.976;20.144;2022-11-20T15:07:23;58.70;;;27.23;;
36663;SDS011;53333;51.976;20.144;2022-11-20T15:10:04;68.30;;;33.10;;
36663;SDS011;53333;51.976;20.144;2022-11-20T15:12:40;63.10;;;30.17;;
36663;SDS011;53333;51.976;20.144;2022-11-20T15:15:21;64.20;;;28.77;;
36663;SDS011;53333;51.976;20.144;2022-11-20T15:17:58;62.50;;;29.75;;
36663;SDS011;53333;51.976;20.144;2022-11-20T15:20:33;63.67;;;28.77;;
36663;SDS011;53333;51.976;20.144;2022-11-20T15:23:09;54.95;;;25.80;;
36663;SDS011;53333;51.976;20.144;2022-11-20T15:25:48;64.28;;;27.55;;
36663;SDS011;53333;51.976;20.144;2022-11-20T15:28:27;59.25;;;28.00;;
36663;SDS011;53333;51.976;20.144;2022-11-20T15:31:03;52.78;;;26.15;;
36663;SDS011;53333;51.976;20.144;2022-11-20T15:33:37;63.85;;;27.38;;
36663;SDS011;53333;51.976;20.144;2022-11-20T15:36:19;57.35;;;28.00;;
36663;SDS011;53333;51.976;20.144;2022-11-20T15:38:52;58.58;;;27.20;;